createdAt,value
2023-04-18T00:01:40.162Z,101097.84
2023-04-18T00:04:07.976Z,101038.09
2023-04-18T00:06:37.494Z,101093.72
2023-04-18T00:09:08.798Z,101086.72
2023-04-18T00:11:39.808Z,101052.91
2023-04-18T00:14:11.299Z,100992.28
2023-04-18T00:16:38.844Z,101082.31
2023-04-18T00:21:54.473Z,101064.19
2023-04-18T00:24:22.994Z,101056.38
2023-04-18T00:26:54.037Z,101021.03
2023-04-18T00:29:24.765Z,101091.41
2023-04-18T00:31:51.647Z,101086.31
2023-04-18T00:34:25.820Z,101066.41
2023-04-18T00:36:53.060Z,101056.22
2023-04-18T00:39:20.097Z,101056.34
2023-04-18T00:41:46.881Z,101077.09
2023-04-18T00:44:15.824Z,101037.47
2023-04-18T00:46:46.354Z,101045.19
2023-04-18T00:49:15.930Z,101081.72
2023-04-18T00:51:44.585Z,101080.09
2023-04-18T00:54:13.769Z,100990.94
2023-04-18T01:02:15.613Z,101017.88
2023-04-18T01:04:48.250Z,101045.66
2023-04-18T01:07:19.540Z,101023.16
2023-04-18T01:09:48.178Z,101069.28
2023-04-18T01:12:17.332Z,101079.63
2023-04-18T01:14:50.606Z,101076.97
2023-04-18T01:17:20.375Z,101023.41
2023-04-18T01:19:48.587Z,101062.38
2023-04-18T01:24:59.265Z,101065.81
2023-04-18T01:27:28.162Z,101078.03
2023-04-18T01:29:55.984Z,101032.91
2023-04-18T01:32:32.399Z,101065.75
2023-04-18T01:35:01.776Z,101053.59
2023-04-18T01:37:30.177Z,101049.31
2023-04-18T01:39:58.985Z,101003.38
2023-04-18T01:42:30.504Z,101065.03
2023-04-18T01:47:46.410Z,101057.22
2023-04-18T01:50:19.945Z,101020.03
2023-04-18T01:52:57.718Z,101001.84
2023-04-18T01:55:27.609Z,101038.22
2023-04-18T01:58:06.987Z,101000.97
2023-04-18T02:00:38.551Z,101058.16
2023-04-18T02:03:07.895Z,101001.88
2023-04-18T02:05:38.430Z,101039.03
2023-04-18T02:08:05.539Z,101047.88
2023-04-18T02:10:44.666Z,101005.47
2023-04-18T02:13:15.615Z,100996.03
2023-04-18T02:15:51.155Z,101024.47
2023-04-18T02:18:24.820Z,101044.59
2023-04-18T02:21:03.731Z,101044.72
2023-04-18T02:23:31.812Z,101004.06
2023-04-18T02:25:59.999Z,101044.84
2023-04-18T02:28:28.404Z,101041.50
2023-04-18T02:30:56.922Z,100986.16
2023-04-18T02:36:18.434Z,101050.50
2023-04-18T02:38:48.874Z,101026.25
2023-04-18T02:41:19.580Z,101034.94
2023-04-18T02:43:46.855Z,101044.50
2023-04-18T02:46:16.453Z,101047.06
2023-04-18T02:48:46.643Z,101005.50
2023-04-18T02:51:15.812Z,101005.53
2023-04-18T02:53:45.566Z,101021.25
2023-04-18T02:56:25.992Z,101007.44
2023-04-18T02:59:02.186Z,101049.13
2023-04-18T03:01:34.633Z,101030.97
2023-04-18T03:07:02.933Z,101025.00
2023-04-18T03:09:35.616Z,101011.94
2023-04-18T03:12:11.510Z,101060.56
2023-04-18T03:14:40.119Z,101040.75
2023-04-18T03:17:08.876Z,101001.88
2023-04-18T03:19:46.607Z,101015.00
2023-04-18T03:22:17.495Z,101054.06
2023-04-18T03:24:45.530Z,101014.25
2023-04-18T03:27:19.217Z,101062.84
2023-04-18T03:29:46.303Z,101013.50
2023-04-18T03:32:18.860Z,101065.66
2023-04-18T03:34:47.618Z,100998.81
2023-04-18T03:37:19.417Z,101006.66
2023-04-18T03:39:49.424Z,101060.59
2023-04-18T03:42:17.174Z,101068.47
2023-04-18T03:44:44.277Z,101001.69
2023-04-18T03:47:18.616Z,101067.63
2023-04-18T03:49:45.915Z,101019.81
2023-04-18T03:52:15.174Z,101020.69
2023-04-18T03:54:47.483Z,101019.84
2023-04-18T03:57:14.626Z,101077.28
2023-04-18T03:59:43.909Z,101009.47
2023-04-18T04:02:13.983Z,101069.34
2023-04-18T04:04:49.182Z,101064.97
2023-04-18T04:07:18.851Z,101042.56
2023-04-18T04:09:49.024Z,101004.31
2023-04-18T04:12:15.830Z,101069.50
2023-04-18T04:14:51.445Z,101021.81
2023-04-18T04:17:19.001Z,101064.44
2023-04-18T04:22:30.292Z,101031.50
2023-04-18T04:24:58.284Z,101020.31
2023-04-18T04:27:33.691Z,101034.19
2023-04-18T04:30:04.459Z,100983.16
2023-04-18T04:32:42.893Z,101011.72
2023-04-18T04:35:17.337Z,101036.78
2023-04-18T04:37:50.284Z,101084.63
2023-04-18T04:40:22.670Z,101046.41
2023-04-18T04:43:12.654Z,101064.63
2023-04-18T04:45:57.069Z,101088.91
2023-04-18T04:48:32.834Z,101058.44
2023-04-18T04:51:03.276Z,101087.97
2023-04-18T04:53:33.036Z,101051.47
2023-04-18T04:56:14.440Z,101021.91
2023-04-18T04:58:43.250Z,101082.56
2023-04-18T05:01:30.628Z,101092.94
2023-04-18T05:04:08.704Z,101024.19
2023-04-18T05:09:21.735Z,101077.78
2023-04-18T05:11:50.236Z,101076.84
2023-04-18T05:14:18.478Z,101087.03
2023-04-18T05:17:13.782Z,100994.19
2023-04-18T05:19:50.428Z,101049.44
2023-04-18T05:25:10.251Z,101101.97
2023-04-18T05:36:17.442Z,101105.09
2023-04-18T05:38:56.364Z,101065.91
2023-04-18T05:41:29.116Z,101105.06
2023-04-18T05:44:05.643Z,101085.97
2023-04-18T05:46:45.377Z,101108.44
2023-04-18T05:49:14.987Z,101059.03
2023-04-18T05:55:00.336Z,101109.06
2023-04-18T06:01:15.558Z,101097.06
2023-04-18T06:03:46.929Z,101097.75
2023-04-18T06:06:19.988Z,101114.06
2023-04-18T06:18:15.400Z,101090.59
2023-04-18T06:21:01.972Z,101132.00
2023-04-18T06:29:14.473Z,101072.19
2023-04-18T06:37:13.572Z,101156.25
2023-04-18T06:39:44.504Z,101145.78
2023-04-18T06:42:29.771Z,101127.88
2023-04-18T06:45:11.066Z,101121.81
2023-04-18T06:53:18.072Z,101123.44
2023-04-18T06:56:07.260Z,101140.50
2023-04-18T06:58:36.649Z,101082.31
2023-04-18T07:04:07.233Z,101124.41
2023-04-18T07:06:36.604Z,101161.72
2023-04-18T07:09:14.958Z,101111.28
2023-04-18T07:11:54.004Z,101170.25
2023-04-18T07:29:41.209Z,101159.50
2023-04-18T07:32:32.960Z,101050.38
2023-04-18T07:36:00.993Z,101154.13
2023-04-18T07:44:11.571Z,101138.31
2023-04-18T07:49:43.819Z,101173.91
2023-04-18T07:55:37.566Z,101177.50
2023-04-18T08:07:03.211Z,101103.78
2023-04-18T08:09:36.826Z,101113.13
2023-04-18T08:12:06.286Z,101172.59
2023-04-18T08:14:34.894Z,101157.28
2023-04-18T08:17:43.476Z,101106.13
2023-04-18T08:20:19.450Z,101134.19
2023-04-18T08:23:05.618Z,101130.06
2023-04-18T08:25:36.189Z,101174.47
2023-04-18T08:28:04.844Z,101149.78
2023-04-18T08:30:33.942Z,101177.72
2023-04-18T08:35:55.165Z,101168.81
2023-04-18T08:38:24.796Z,101177.94
2023-04-18T08:40:54.884Z,101168.69
2023-04-18T08:48:55.836Z,101187.56
2023-04-18T08:54:10.250Z,101114.97
2023-04-18T08:56:38.007Z,101194.47
2023-04-18T09:02:04.640Z,101185.34
2023-04-18T09:04:37.626Z,101186.03
2023-04-18T09:07:17.408Z,101174.28
2023-04-18T09:09:50.632Z,101171.63
2023-04-18T09:12:25.817Z,101163.97
2023-04-18T09:14:58.000Z,101159.00
2023-04-18T09:17:44.736Z,101165.91
2023-04-18T09:20:17.603Z,101162.75
2023-04-18T09:23:02.526Z,101159.91
2023-04-18T09:25:46.273Z,101159.50
2023-04-18T09:28:37.056Z,101111.25
2023-04-18T09:34:10.948Z,101165.09
2023-04-18T09:39:31.362Z,101154.91
2023-04-18T09:42:06.121Z,101117.44
2023-04-18T09:45:09.023Z,101149.59
2023-04-18T09:47:40.698Z,101140.56
2023-04-18T09:50:11.320Z,101105.94
2023-04-18T09:52:43.589Z,101072.75
2023-04-18T09:55:26.162Z,101092.41
2023-04-18T09:58:00.235Z,101154.53
2023-04-18T10:00:30.727Z,101090.69
2023-04-18T10:03:04.292Z,101142.00
2023-04-18T10:05:38.710Z,101119.63
2023-04-18T10:08:15.838Z,101150.56
2023-04-18T10:10:48.182Z,101096.56
2023-04-18T10:16:21.615Z,101085.69
2023-04-18T10:18:52.301Z,101119.50
2023-04-18T10:21:22.222Z,101106.56
2023-04-18T10:23:57.989Z,101135.47
2023-04-18T10:26:50.472Z,101134.44
2023-04-18T10:29:19.814Z,101106.75
2023-04-18T10:32:00.897Z,101095.19
2023-04-18T10:34:32.369Z,101117.34
2023-04-18T10:37:17.996Z,101090.44
2023-04-18T10:39:53.948Z,101125.72
2023-04-18T10:42:54.219Z,101126.25
2023-04-18T10:48:34.360Z,101111.97
2023-04-18T10:51:18.008Z,101131.41
2023-04-18T10:53:54.334Z,101111.22
2023-04-18T10:56:31.295Z,101094.63
2023-04-18T10:59:11.524Z,101103.22
2023-04-18T11:07:17.290Z,101075.97
2023-04-18T11:09:58.949Z,101084.31
2023-04-18T11:12:35.497Z,101090.06
2023-04-18T11:15:11.229Z,101092.09
2023-04-18T11:17:42.926Z,101031.63
2023-04-18T11:20:14.456Z,101094.41
2023-04-18T11:25:39.577Z,101026.22
2023-04-18T11:46:05.566Z,101042.06
2023-04-18T11:57:56.758Z,101070.09
2023-04-18T12:03:30.031Z,101024.41
2023-04-18T12:14:29.590Z,101034.56
2023-04-18T12:31:58.268Z,101044.31
2023-04-18T12:52:17.394Z,101074.56
2023-04-18T13:04:13.156Z,101024.81
2023-04-18T13:09:52.703Z,101022.03
2023-04-18T13:12:20.034Z,101037.50
2023-04-18T13:14:53.916Z,101075.47
2023-04-18T13:17:27.437Z,101047.63
2023-04-18T13:20:01.951Z,101072.75
2023-04-18T13:22:31.335Z,101060.50
2023-04-18T13:25:04.142Z,101078.22
2023-04-18T13:27:38.992Z,101052.38
2023-04-18T13:30:10.120Z,101043.28
2023-04-18T13:32:40.449Z,101023.31
2023-04-18T13:35:12.561Z,101062.06
2023-04-18T13:49:51.376Z,101024.22
2023-04-18T13:52:27.529Z,101010.13
2023-04-18T13:55:05.937Z,100992.13
2023-04-18T13:57:36.536Z,101073.66
2023-04-18T14:00:15.797Z,101069.38
2023-04-18T14:02:45.585Z,101021.84
2023-04-18T14:08:02.646Z,101064.81
2023-04-18T14:10:31.113Z,101068.22
2023-04-18T14:13:02.856Z,101062.25
2023-04-18T14:15:32.135Z,101073.06
2023-04-18T14:17:59.618Z,100988.16
2023-04-18T14:45:29.690Z,100975.75
2023-04-18T14:53:56.772Z,101024.00
2023-04-18T15:16:27.486Z,101049.69
2023-04-18T15:19:01.441Z,101050.69
2023-04-18T15:33:50.108Z,101057.63
2023-04-18T15:36:29.276Z,101050.72
2023-04-18T15:39:04.512Z,101055.59
2023-04-18T15:41:36.234Z,101025.50
2023-04-18T15:49:59.912Z,101066.81
2023-04-18T15:52:27.171Z,101057.63
2023-04-18T16:07:19.766Z,101028.81
2023-04-18T16:16:07.937Z,101041.00
2023-04-18T16:18:45.696Z,101087.88
2023-04-18T16:24:01.287Z,101084.81
2023-04-18T16:26:34.792Z,101093.38
2023-04-18T16:34:33.526Z,101093.22
2023-04-18T16:51:03.882Z,101072.41
2023-04-18T16:53:43.513Z,101070.63
2023-04-18T16:56:14.338Z,101087.66
2023-04-18T16:58:53.728Z,101104.53
2023-04-18T17:01:30.120Z,101075.38
2023-04-18T17:04:06.841Z,101066.34
2023-04-18T17:06:36.053Z,101114.81
2023-04-18T17:09:25.926Z,101070.16
2023-04-18T17:14:45.756Z,101095.66
2023-04-18T17:17:32.394Z,101027.72
2023-04-18T17:26:15.212Z,101045.47
2023-04-18T17:29:03.822Z,101120.63
2023-04-18T17:36:57.478Z,101124.75
2023-04-18T17:45:30.262Z,101147.59
2023-04-18T17:59:12.534Z,101156.41
2023-04-18T18:08:31.875Z,101125.97
2023-04-18T18:17:15.781Z,101190.91
2023-04-18T18:25:56.432Z,101193.78
2023-04-18T18:31:51.948Z,101131.84
2023-04-18T18:34:49.814Z,101191.47
2023-04-18T18:45:41.272Z,101206.81
2023-04-18T18:48:11.209Z,101198.84
2023-04-18T18:59:09.618Z,101214.53
2023-04-18T19:02:04.448Z,101225.81
2023-04-18T19:10:01.224Z,101178.34
2023-04-18T19:13:20.530Z,101195.63
2023-04-18T19:18:51.771Z,101177.66
2023-04-18T19:21:29.274Z,101233.22
2023-04-18T19:26:53.681Z,101238.47
2023-04-18T19:29:26.775Z,101183.88
2023-04-18T19:32:09.238Z,101152.75
2023-04-18T19:45:05.658Z,101240.56
2023-04-18T19:52:12.250Z,101234.50
2023-04-18T21:04:11.001Z,101159.72
2023-04-18T21:15:17.901Z,101193.56
2023-04-18T21:17:52.973Z,101250.00
2023-04-18T21:43:11.984Z,101173.44
2023-04-18T21:45:44.850Z,101183.22
2023-04-18T21:56:45.957Z,101195.59
2023-04-18T21:59:38.876Z,101258.22
2023-04-18T22:02:13.567Z,101247.53
2023-04-18T22:04:43.113Z,101243.97
2023-04-18T22:07:25.109Z,101208.59
2023-04-18T22:13:08.242Z,101245.81
2023-04-18T22:18:32.173Z,101244.84
2023-04-18T22:24:10.509Z,101236.06
2023-04-18T22:26:40.307Z,101243.06
2023-04-18T22:29:35.305Z,101248.44
2023-04-18T22:38:05.375Z,101243.16
2023-04-18T22:43:29.903Z,101231.97
2023-04-18T22:46:08.578Z,101247.47
2023-04-18T22:51:54.672Z,101220.75
2023-04-18T22:57:09.823Z,101220.06
2023-04-18T23:02:21.153Z,101250.22
2023-04-18T23:04:49.760Z,101200.00
2023-04-18T23:07:17.734Z,101247.72
2023-04-18T23:09:46.957Z,101242.56
2023-04-18T23:12:16.295Z,101221.81
2023-04-18T23:17:27.032Z,101216.78
2023-04-18T23:19:57.695Z,101214.06
2023-04-18T23:27:54.212Z,101251.34
2023-04-18T23:30:20.988Z,101248.69
2023-04-18T23:32:48.000Z,101256.63
2023-04-18T23:35:24.094Z,101247.81
2023-04-18T23:40:33.253Z,101253.78
2023-04-18T23:43:03.303Z,101245.97
2023-04-18T23:45:31.899Z,101197.66
2023-04-18T23:48:00.233Z,101221.09
2023-04-18T23:50:31.056Z,101213.22
2023-04-18T23:52:58.624Z,101240.88
2023-04-18T23:55:29.846Z,101225.38
2023-04-18T23:57:58.350Z,101241.84
